sensor_id;sensor_type;location;lat;lon;timestamp;pressure;altitude;pressure_sealevel;temperature;humidity
70921;BME280;58572;48.110;19.838;2023-03-22T00:00:55;97682.56;;;8.34;71.42
70921;BME280;58572;48.110;19.838;2023-03-22T00:03:22;97682.47;;;8.64;67.26
70921;BME280;58572;48.110;19.838;2023-03-22T00:05:56;97677.09;;;8.54;67.45
70921;BME280;58572;48.110;19.838;2023-03-22T00:08:22;97680.38;;;7.75;72.92
70921;BME280;58572;48.110;19.838;2023-03-22T00:10:49;97516.81;;;6.28;74.76
70921;BME280;58572;48.110;19.838;2023-03-22T00:13:16;97499.44;;;6.04;74.97
70921;BME280;58572;48.110;19.838;2023-03-22T00:15:43;97688.88;;;7.11;75.61
70921;BME280;58572;48.110;19.838;2023-03-22T00:18:15;97600.28;;;6.40;75.46
70921;BME280;58572;48.110;19.838;2023-03-22T00:20:48;97697.50;;;6.97;75.10
70921;BME280;58572;48.110;19.838;2023-03-22T00:23:15;97689.97;;;7.10;76.04
70921;BME280;58572;48.110;19.838;2023-03-22T00:25:43;97690.25;;;7.13;75.09
70921;BME280;58572;48.110;19.838;2023-03-22T00:28:10;97685.34;;;7.05;76.18
70921;BME280;58572;48.110;19.838;2023-03-22T00:30:38;97687.53;;;7.08;76.07
70921;BME280;58572;48.110;19.838;2023-03-22T00:33:05;97594.13;;;6.50;75.09
70921;BME280;58572;48.110;19.838;2023-03-22T00:35:34;97686.72;;;7.08;76.05
70921;BME280;58572;48.110;19.838;2023-03-22T00:38:01;97692.13;;;7.08;75.69
70921;BME280;58572;48.110;19.838;2023-03-22T00:40:39;97686.75;;;7.18;74.97
70921;BME280;58572;48.110;19.838;2023-03-22T00:43:06;97678.91;;;7.16;75.32
70921;BME280;58572;48.110;19.838;2023-03-22T00:45:33;97680.81;;;7.21;75.15
70921;BME280;58572;48.110;19.838;2023-03-22T00:48:02;97673.81;;;7.30;73.65
70921;BME280;58572;48.110;19.838;2023-03-22T00:50:29;97672.19;;;7.29;74.52
70921;BME280;58572;48.110;19.838;2023-03-22T00:52:58;97670.53;;;7.28;74.12
70921;BME280;58572;48.110;19.838;2023-03-22T00:55:25;97600.56;;;6.44;75.63
70921;BME280;58572;48.110;19.838;2023-03-22T00:57:52;97676.41;;;6.94;76.26
70921;BME280;58572;48.110;19.838;2023-03-22T01:00:19;97668.34;;;7.10;76.00
70921;BME280;58572;48.110;19.838;2023-03-22T01:02:47;97670.00;;;7.26;74.72
70921;BME280;58572;48.110;19.838;2023-03-22T01:05:18;97668.88;;;7.12;74.47
70921;BME280;58572;48.110;19.838;2023-03-22T01:07:47;97592.91;;;6.93;73.42
70921;BME280;58572;48.110;19.838;2023-03-22T01:10:17;97662.69;;;7.16;75.41
70921;BME280;58572;48.110;19.838;2023-03-22T01:12:44;97664.03;;;7.24;74.40
70921;BME280;58572;48.110;19.838;2023-03-22T01:15:12;97665.13;;;7.28;73.51
70921;BME280;58572;48.110;19.838;2023-03-22T01:17:39;97655.16;;;7.28;74.33
70921;BME280;58572;48.110;19.838;2023-03-22T01:20:07;97657.56;;;7.20;74.90
70921;BME280;58572;48.110;19.838;2023-03-22T01:22:35;97654.31;;;7.28;74.13
70921;BME280;58572;48.110;19.838;2023-03-22T01:25:02;97658.88;;;7.07;74.93
70921;BME280;58572;48.110;19.838;2023-03-22T01:27:31;97664.47;;;6.85;75.83
70921;BME280;58572;48.110;19.838;2023-03-22T01:29:58;97656.34;;;6.75;77.01
70921;BME280;58572;48.110;19.838;2023-03-22T01:32:25;97662.22;;;6.62;77.54
70921;BME280;58572;48.110;19.838;2023-03-22T01:34:52;97653.63;;;6.70;76.90
70921;BME280;58572;48.110;19.838;2023-03-22T01:37:19;97613.00;;;6.45;76.81
70921;BME280;58572;48.110;19.838;2023-03-22T01:39:49;97622.47;;;6.52;76.33
70921;BME280;58572;48.110;19.838;2023-03-22T01:42:16;97651.94;;;6.59;77.30
70921;BME280;58572;48.110;19.838;2023-03-22T01:47:49;97644.91;;;6.58;76.86
70921;BME280;58572;48.110;19.838;2023-03-22T01:50:18;97654.13;;;6.62;76.89
70921;BME280;58572;48.110;19.838;2023-03-22T01:52:46;97423.97;;;5.20;76.19
70921;BME280;58572;48.110;19.838;2023-03-22T01:55:14;97646.13;;;6.92;73.79
70921;BME280;58572;48.110;19.838;2023-03-22T01:57:43;97641.84;;;7.07;73.41
70921;BME280;58572;48.110;19.838;2023-03-22T02:00:12;97652.94;;;6.43;76.14
70921;BME280;58572;48.110;19.838;2023-03-22T02:02:41;97650.69;;;6.82;74.01
70921;BME280;58572;48.110;19.838;2023-03-22T02:05:10;97641.94;;;7.42;71.09
70921;BME280;58572;48.110;19.838;2023-03-22T02:07:38;97561.22;;;6.63;73.11
70921;BME280;58572;48.110;19.838;2023-03-22T02:10:10;97654.22;;;6.87;74.24
70921;BME280;58572;48.110;19.838;2023-03-22T02:12:44;97662.69;;;6.49;75.44
70921;BME280;58572;48.110;19.838;2023-03-22T02:15:21;97657.06;;;7.33;69.79
70921;BME280;58572;48.110;19.838;2023-03-22T02:18:01;97441.69;;;6.05;71.59
70921;BME280;58572;48.110;19.838;2023-03-22T02:20:46;97652.69;;;7.17;74.70
70921;BME280;58572;48.110;19.838;2023-03-22T02:29:32;97661.41;;;8.00;65.25
70921;BME280;58572;48.110;19.838;2023-03-22T02:35:40;97660.06;;;7.67;66.23
70921;BME280;58572;48.110;19.838;2023-03-22T02:41:11;97675.75;;;6.67;74.60
70921;BME280;58572;48.110;19.838;2023-03-22T02:43:45;97672.16;;;6.51;75.39
70921;BME280;58572;48.110;19.838;2023-03-22T02:46:21;97672.34;;;6.34;76.38
70921;BME280;58572;48.110;19.838;2023-03-22T02:48:53;97630.41;;;6.79;73.12
70921;BME280;58572;48.110;19.838;2023-03-22T02:51:30;97667.03;;;7.22;71.86
70921;BME280;58572;48.110;19.838;2023-03-22T02:54:03;97657.63;;;7.65;71.85
70921;BME280;58572;48.110;19.838;2023-03-22T02:56:36;97645.94;;;8.31;67.07
70921;BME280;58572;48.110;19.838;2023-03-22T02:59:08;97585.09;;;7.88;64.47
70921;BME280;58572;48.110;19.838;2023-03-22T03:01:40;97669.53;;;8.15;66.55
70921;BME280;58572;48.110;19.838;2023-03-22T03:04:12;97665.47;;;8.02;65.55
70921;BME280;58572;48.110;19.838;2023-03-22T03:06:43;97640.31;;;7.51;70.71
70921;BME280;58572;48.110;19.838;2023-03-22T03:09:12;97582.09;;;6.93;73.92
70921;BME280;58572;48.110;19.838;2023-03-22T03:11:44;97649.75;;;7.28;76.53
70921;BME280;58572;48.110;19.838;2023-03-22T03:14:20;97655.47;;;8.03;74.25
70921;BME280;58572;48.110;19.838;2023-03-22T03:16:52;97664.66;;;8.43;66.12
70921;BME280;58572;48.110;19.838;2023-03-22T03:19:28;97644.59;;;8.23;66.03
70921;BME280;58572;48.110;19.838;2023-03-22T03:22:00;97636.47;;;8.28;65.18
70921;BME280;58572;48.110;19.838;2023-03-22T03:24:34;97670.88;;;7.52;72.51
70921;BME280;58572;48.110;19.838;2023-03-22T03:27:08;97671.69;;;8.44;64.57
70921;BME280;58572;48.110;19.838;2023-03-22T03:29:44;97666.91;;;8.95;64.29
70921;BME280;58572;48.110;19.838;2023-03-22T03:32:18;97637.63;;;7.72;66.38
70921;BME280;58572;48.110;19.838;2023-03-22T03:34:49;97664.69;;;6.73;75.74
70921;BME280;58572;48.110;19.838;2023-03-22T03:37:20;97598.03;;;6.89;72.93
70921;BME280;58572;48.110;19.838;2023-03-22T03:39:51;97658.16;;;8.13;66.98
70921;BME280;58572;48.110;19.838;2023-03-22T03:42:24;97658.19;;;7.88;66.30
70921;BME280;58572;48.110;19.838;2023-03-22T03:44:52;97657.78;;;6.35;76.43
70921;BME280;58572;48.110;19.838;2023-03-22T03:47:21;97651.88;;;6.44;77.41
70921;BME280;58572;48.110;19.838;2023-03-22T03:49:49;97646.34;;;6.76;76.59
70921;BME280;58572;48.110;19.838;2023-03-22T03:52:16;97563.47;;;7.12;72.73
70921;BME280;58572;48.110;19.838;2023-03-22T03:54:43;97646.81;;;7.91;67.49
70921;BME280;58572;48.110;19.838;2023-03-22T03:57:10;97643.78;;;6.44;74.58
70921;BME280;58572;48.110;19.838;2023-03-22T03:59:39;97650.06;;;5.80;78.20
70921;BME280;58572;48.110;19.838;2023-03-22T04:02:06;97637.06;;;6.09;78.51
70921;BME280;58572;48.110;19.838;2023-03-22T04:04:33;97641.03;;;6.33;77.52
70921;BME280;58572;48.110;19.838;2023-03-22T04:07:01;97639.75;;;7.29;70.00
70921;BME280;58572;48.110;19.838;2023-03-22T04:09:30;97642.75;;;7.58;68.37
70921;BME280;58572;48.110;19.838;2023-03-22T04:11:58;97594.88;;;6.40;72.50
70921;BME280;58572;48.110;19.838;2023-03-22T04:14:26;97642.47;;;7.34;68.43
70921;BME280;58572;48.110;19.838;2023-03-22T04:16:54;97575.13;;;5.87;72.83
70921;BME280;58572;48.110;19.838;2023-03-22T04:19:22;97651.31;;;5.67;77.34
70921;BME280;58572;48.110;19.838;2023-03-22T04:21:49;97649.97;;;6.39;73.01
70921;BME280;58572;48.110;19.838;2023-03-22T04:24:18;97644.09;;;7.35;67.81
70921;BME280;58572;48.110;19.838;2023-03-22T04:26:45;97652.22;;;7.50;66.42
70921;BME280;58572;48.110;19.838;2023-03-22T04:29:12;97653.31;;;7.75;65.41
70921;BME280;58572;48.110;19.838;2023-03-22T04:31:39;97580.75;;;7.05;65.46
70921;BME280;58572;48.110;19.838;2023-03-22T04:34:07;97669.53;;;7.54;65.96
70921;BME280;58572;48.110;19.838;2023-03-22T04:36:36;97673.50;;;7.16;66.36
70921;BME280;58572;48.110;19.838;2023-03-22T04:39:05;97680.69;;;5.64;73.12
70921;BME280;58572;48.110;19.838;2023-03-22T04:41:32;97693.56;;;5.30;75.92
70921;BME280;58572;48.110;19.838;2023-03-22T04:44:00;97676.13;;;6.33;70.62
70921;BME280;58572;48.110;19.838;2023-03-22T04:46:28;97682.91;;;6.04;72.58
70921;BME280;58572;48.110;19.838;2023-03-22T04:48:57;97690.53;;;4.99;77.34
70921;BME280;58572;48.110;19.838;2023-03-22T04:51:26;97614.72;;;4.64;78.67
70921;BME280;58572;48.110;19.838;2023-03-22T04:53:54;97612.13;;;4.74;79.24
70921;BME280;58572;48.110;19.838;2023-03-22T04:56:22;97693.47;;;4.98;80.86
70921;BME280;58572;48.110;19.838;2023-03-22T04:58:49;97690.19;;;5.18;80.04
70921;BME280;58572;48.110;19.838;2023-03-22T05:01:17;97693.06;;;5.33;80.64
70921;BME280;58572;48.110;19.838;2023-03-22T05:03:44;97684.25;;;5.69;79.52
70921;BME280;58572;48.110;19.838;2023-03-22T05:06:12;97681.16;;;5.88;78.86
70921;BME280;58572;48.110;19.838;2023-03-22T05:08:40;97678.66;;;6.13;78.46
70921;BME280;58572;48.110;19.838;2023-03-22T05:11:09;97678.84;;;6.96;71.23
70921;BME280;58572;48.110;19.838;2023-03-22T05:13:38;97684.59;;;7.25;67.82
70921;BME280;58572;48.110;19.838;2023-03-22T05:16:06;97693.28;;;7.32;68.01
70921;BME280;58572;48.110;19.838;2023-03-22T05:18:32;97691.31;;;7.07;67.98
70921;BME280;58572;48.110;19.838;2023-03-22T05:21:02;97695.09;;;6.49;69.78
70921;BME280;58572;48.110;19.838;2023-03-22T05:23:31;97550.47;;;5.31;72.78
70921;BME280;58572;48.110;19.838;2023-03-22T05:25:59;97647.25;;;7.12;66.07
70921;BME280;58572;48.110;19.838;2023-03-22T05:28:28;97708.50;;;7.58;65.71
70921;BME280;58572;48.110;19.838;2023-03-22T05:30:56;97701.47;;;7.62;64.72
70921;BME280;58572;48.110;19.838;2023-03-22T05:33:23;97720.25;;;6.17;74.92
70921;BME280;58572;48.110;19.838;2023-03-22T05:35:53;97718.41;;;6.23;76.37
70921;BME280;58572;48.110;19.838;2023-03-22T05:38:21;97710.59;;;6.63;75.55
70921;BME280;58572;48.110;19.838;2023-03-22T05:40:49;97706.06;;;7.77;66.97
70921;BME280;58572;48.110;19.838;2023-03-22T05:43:17;97696.88;;;8.09;64.88
70921;BME280;58572;48.110;19.838;2023-03-22T05:45:44;97710.69;;;7.77;65.74
70921;BME280;58572;48.110;19.838;2023-03-22T05:48:12;97718.78;;;7.82;65.31
70921;BME280;58572;48.110;19.838;2023-03-22T05:50:40;97718.78;;;7.82;67.63
70921;BME280;58572;48.110;19.838;2023-03-22T05:53:07;97707.69;;;7.68;64.74
70921;BME280;58572;48.110;19.838;2023-03-22T05:55:35;97711.75;;;8.01;63.17
70921;BME280;58572;48.110;19.838;2023-03-22T05:58:02;97577.78;;;6.97;63.79
70921;BME280;58572;48.110;19.838;2023-03-22T06:00:31;97722.06;;;7.94;63.89
70921;BME280;58572;48.110;19.838;2023-03-22T06:02:58;97717.44;;;7.74;64.47
70921;BME280;58572;48.110;19.838;2023-03-22T06:05:28;97722.28;;;6.79;67.99
70921;BME280;58572;48.110;19.838;2023-03-22T06:07:56;97735.19;;;5.93;75.81
70921;BME280;58572;48.110;19.838;2023-03-22T06:10:24;97736.03;;;6.30;74.20
70921;BME280;58572;48.110;19.838;2023-03-22T06:12:52;97730.13;;;7.58;65.90
70921;BME280;58572;48.110;19.838;2023-03-22T06:15:20;97726.91;;;7.87;65.31
70921;BME280;58572;48.110;19.838;2023-03-22T06:17:48;97733.97;;;6.95;68.42
70921;BME280;58572;48.110;19.838;2023-03-22T06:20:16;97726.63;;;7.73;64.62
70921;BME280;58572;48.110;19.838;2023-03-22T06:22:43;97734.22;;;7.91;63.87
70921;BME280;58572;48.110;19.838;2023-03-22T06:25:10;97736.66;;;7.83;63.64
70921;BME280;58572;48.110;19.838;2023-03-22T06:27:39;97748.50;;;7.46;65.58
70921;BME280;58572;48.110;19.838;2023-03-22T06:30:07;97759.50;;;6.67;74.55
70921;BME280;58572;48.110;19.838;2023-03-22T06:32:34;97752.31;;;6.88;73.56
70921;BME280;58572;48.110;19.838;2023-03-22T06:35:03;97740.13;;;7.48;72.04
70921;BME280;58572;48.110;19.838;2023-03-22T06:37:30;97748.00;;;7.69;68.67
70921;BME280;58572;48.110;19.838;2023-03-22T06:39:57;97743.72;;;8.04;69.11
70921;BME280;58572;48.110;19.838;2023-03-22T06:42:24;97740.47;;;8.12;70.38
70921;BME280;58572;48.110;19.838;2023-03-22T06:44:51;97742.66;;;8.51;65.73
70921;BME280;58572;48.110;19.838;2023-03-22T06:47:20;97735.59;;;8.60;70.14
70921;BME280;58572;48.110;19.838;2023-03-22T06:49:47;97711.25;;;8.35;70.06
70921;BME280;58572;48.110;19.838;2023-03-22T06:52:15;97750.22;;;8.18;72.96
70921;BME280;58572;48.110;19.838;2023-03-22T06:54:42;97753.72;;;8.75;72.19
70921;BME280;58572;48.110;19.838;2023-03-22T06:57:09;97752.97;;;9.34;71.17
70921;BME280;58572;48.110;19.838;2023-03-22T06:59:36;97749.72;;;10.25;67.55
70921;BME280;58572;48.110;19.838;2023-03-22T07:02:05;97748.66;;;10.55;66.97
70921;BME280;58572;48.110;19.838;2023-03-22T07:04:32;97750.78;;;11.11;64.96
70921;BME280;58572;48.110;19.838;2023-03-22T07:06:59;97752.38;;;11.36;64.25
70921;BME280;58572;48.110;19.838;2023-03-22T07:09:27;97754.34;;;11.54;60.79
70921;BME280;58572;48.110;19.838;2023-03-22T07:11:54;97756.91;;;11.22;61.79
70921;BME280;58572;48.110;19.838;2023-03-22T07:14:21;97725.09;;;10.74;65.94
70921;BME280;58572;48.110;19.838;2023-03-22T07:16:48;97760.63;;;11.55;64.67
70921;BME280;58572;48.110;19.838;2023-03-22T07:19:16;97762.69;;;11.63;61.81
70921;BME280;58572;48.110;19.838;2023-03-22T07:21:43;97759.09;;;12.24;61.59
70921;BME280;58572;48.110;19.838;2023-03-22T07:24:10;97721.19;;;11.71;60.90
70921;BME280;58572;48.110;19.838;2023-03-22T07:26:39;97670.13;;;10.77;64.10
70921;BME280;58572;48.110;19.838;2023-03-22T07:29:06;97754.91;;;12.12;62.08
70921;BME280;58572;48.110;19.838;2023-03-22T07:31:33;97757.50;;;11.18;63.24
70921;BME280;58572;48.110;19.838;2023-03-22T07:34:01;97701.22;;;11.14;62.86
70921;BME280;58572;48.110;19.838;2023-03-22T07:36:28;97768.88;;;10.44;64.45
70921;BME280;58572;48.110;19.838;2023-03-22T07:38:55;97763.56;;;11.34;63.32
70921;BME280;58572;48.110;19.838;2023-03-22T07:41:23;97756.09;;;12.06;61.97
70921;BME280;58572;48.110;19.838;2023-03-22T07:43:53;97762.09;;;11.66;61.78
70921;BME280;58572;48.110;19.838;2023-03-22T07:46:20;97768.03;;;11.25;62.34
70921;BME280;58572;48.110;19.838;2023-03-22T07:48:46;97730.31;;;10.42;64.01
70921;BME280;58572;48.110;19.838;2023-03-22T07:51:14;97733.25;;;11.65;61.19
70921;BME280;58572;48.110;19.838;2023-03-22T07:53:41;97755.75;;;12.27;61.16
70921;BME280;58572;48.110;19.838;2023-03-22T07:56:09;97756.81;;;12.44;58.97
70921;BME280;58572;48.110;19.838;2023-03-22T07:58:35;97749.53;;;12.59;60.31
70921;BME280;58572;48.110;19.838;2023-03-22T08:01:06;97758.63;;;11.60;61.56
70921;BME280;58572;48.110;19.838;2023-03-22T08:03:34;97759.53;;;12.12;59.85
70921;BME280;58572;48.110;19.838;2023-03-22T08:06:02;97712.28;;;12.95;57.64
70921;BME280;58572;48.110;19.838;2023-03-22T08:08:33;97759.53;;;12.63;58.68
70921;BME280;58572;48.110;19.838;2023-03-22T08:11:00;97754.91;;;12.77;58.63
70921;BME280;58572;48.110;19.838;2023-03-22T08:13:27;97753.53;;;12.94;58.13
70921;BME280;58572;48.110;19.838;2023-03-22T08:15:54;97751.84;;;13.39;57.18
70921;BME280;58572;48.110;19.838;2023-03-22T08:18:22;97753.91;;;12.73;56.43
70921;BME280;58572;48.110;19.838;2023-03-22T08:20:52;97748.88;;;13.77;54.66
70921;BME280;58572;48.110;19.838;2023-03-22T08:23:20;97751.28;;;13.78;56.08
70921;BME280;58572;48.110;19.838;2023-03-22T08:25:47;97755.31;;;14.17;51.26
70921;BME280;58572;48.110;19.838;2023-03-22T08:28:15;97748.06;;;13.76;54.50
70921;BME280;58572;48.110;19.838;2023-03-22T08:30:42;97750.84;;;14.88;53.35
70921;BME280;58572;48.110;19.838;2023-03-22T08:33:09;97688.66;;;14.49;50.06
70921;BME280;58572;48.110;19.838;2023-03-22T08:35:38;97741.53;;;16.37;49.50
70921;BME280;58572;48.110;19.838;2023-03-22T08:38:05;97768.69;;;13.82;51.57
70921;BME280;58572;48.110;19.838;2023-03-22T08:40:32;97753.03;;;13.47;53.80
70921;BME280;58572;48.110;19.838;2023-03-22T08:42:59;97751.13;;;14.55;53.50
70921;BME280;58572;48.110;19.838;2023-03-22T08:45:26;97749.72;;;15.28;50.84
70921;BME280;58572;48.110;19.838;2023-03-22T08:47:53;97747.78;;;14.58;51.21
70921;BME280;58572;48.110;19.838;2023-03-22T08:50:20;97719.97;;;14.96;49.92
70921;BME280;58572;48.110;19.838;2023-03-22T08:52:49;97741.53;;;17.48;46.78
70921;BME280;58572;48.110;19.838;2023-03-22T08:55:18;97747.31;;;16.53;48.59
70921;BME280;58572;48.110;19.838;2023-03-22T08:57:45;97745.69;;;16.78;47.23
70921;BME280;58572;48.110;19.838;2023-03-22T09:00:16;97749.59;;;16.16;48.89
70921;BME280;58572;48.110;19.838;2023-03-22T09:02:44;97750.06;;;16.79;45.61
70921;BME280;58572;48.110;19.838;2023-03-22T09:05:12;97750.72;;;16.33;46.52
70921;BME280;58572;48.110;19.838;2023-03-22T09:07:39;97636.06;;;14.91;48.60
70921;BME280;58572;48.110;19.838;2023-03-22T09:10:09;97760.38;;;13.87;51.62
70921;BME280;58572;48.110;19.838;2023-03-22T09:12:36;97761.22;;;14.10;50.89
70921;BME280;58572;48.110;19.838;2023-03-22T09:15:04;97754.13;;;16.73;47.09
70921;BME280;58572;48.110;19.838;2023-03-22T09:17:32;97739.19;;;16.91;47.95
70921;BME280;58572;48.110;19.838;2023-03-22T09:19:59;97740.88;;;16.75;48.23
70921;BME280;58572;48.110;19.838;2023-03-22T09:22:26;97736.34;;;17.17;47.02
70921;BME280;58572;48.110;19.838;2023-03-22T09:24:53;97745.31;;;17.35;45.96
70921;BME280;58572;48.110;19.838;2023-03-22T09:27:21;97746.16;;;16.63;46.04
70921;BME280;58572;48.110;19.838;2023-03-22T09:29:48;97717.03;;;17.05;44.42
70921;BME280;58572;48.110;19.838;2023-03-22T09:32:17;97746.81;;;16.85;45.98
70921;BME280;58572;48.110;19.838;2023-03-22T09:34:44;97760.53;;;15.73;46.59
70921;BME280;58572;48.110;19.838;2023-03-22T09:37:10;97742.06;;;17.79;46.24
70921;BME280;58572;48.110;19.838;2023-03-22T09:39:39;97701.06;;;17.28;43.42
70921;BME280;58572;48.110;19.838;2023-03-22T09:42:24;97729.78;;;18.18;44.78
70921;BME280;58572;48.110;19.838;2023-03-22T09:44:54;97731.84;;;19.21;40.24
70921;BME280;58572;48.110;19.838;2023-03-22T09:47:30;97733.47;;;18.23;44.43
70921;BME280;58572;48.110;19.838;2023-03-22T09:50:05;97728.50;;;18.16;43.96
70921;BME280;58572;48.110;19.838;2023-03-22T09:52:34;97722.44;;;18.43;42.72
70921;BME280;58572;48.110;19.838;2023-03-22T09:55:01;97723.16;;;17.99;44.20
70921;BME280;58572;48.110;19.838;2023-03-22T09:57:32;97737.78;;;17.52;43.27
70921;BME280;58572;48.110;19.838;2023-03-22T10:00:07;97731.28;;;16.89;44.12
70921;BME280;58572;48.110;19.838;2023-03-22T10:02:49;97725.88;;;18.19;43.31
70921;BME280;58572;48.110;19.838;2023-03-22T10:05:25;97669.41;;;18.67;40.12
70921;BME280;58572;48.110;19.838;2023-03-22T10:10:48;97711.47;;;19.98;38.83
70921;BME280;58572;48.110;19.838;2023-03-22T10:13:22;97602.91;;;18.90;38.66
70921;BME280;58572;48.110;19.838;2023-03-22T10:15:50;97718.63;;;19.14;42.07
70921;BME280;58572;48.110;19.838;2023-03-22T10:18:23;97693.94;;;18.27;39.20
70921;BME280;58572;48.110;19.838;2023-03-22T10:20:55;97723.66;;;17.63;45.30
70921;BME280;58572;48.110;19.838;2023-03-22T10:23:29;97722.00;;;18.54;43.21
70921;BME280;58572;48.110;19.838;2023-03-22T10:25:59;97710.75;;;18.46;42.46
70921;BME280;58572;48.110;19.838;2023-03-22T10:28:35;97713.53;;;20.42;38.87
70921;BME280;58572;48.110;19.838;2023-03-22T10:31:03;97677.72;;;19.77;41.18
70921;BME280;58572;48.110;19.838;2023-03-22T10:33:36;97709.88;;;19.97;40.48
70921;BME280;58572;48.110;19.838;2023-03-22T10:36:05;97715.06;;;18.35;41.44
70921;BME280;58572;48.110;19.838;2023-03-22T10:38:36;97703.03;;;20.47;39.75
70921;BME280;58572;48.110;19.838;2023-03-22T10:41:07;97717.56;;;20.04;40.48
70921;BME280;58572;48.110;19.838;2023-03-22T10:43:37;97701.94;;;20.80;37.10
70921;BME280;58572;48.110;19.838;2023-03-22T10:46:11;97710.72;;;19.37;36.84
70921;BME280;58572;48.110;19.838;2023-03-22T10:48:41;97708.94;;;20.33;38.60
70921;BME280;58572;48.110;19.838;2023-03-22T10:51:19;97688.75;;;20.73;36.04
70921;BME280;58572;48.110;19.838;2023-03-22T10:53:48;97713.88;;;20.00;35.84
70921;BME280;58572;48.110;19.838;2023-03-22T10:56:18;97671.00;;;20.30;36.53
70921;BME280;58572;48.110;19.838;2023-03-22T10:58:48;97687.09;;;21.16;35.04
70921;BME280;58572;48.110;19.838;2023-03-22T11:01:24;97680.53;;;22.45;35.95
70921;BME280;58572;48.110;19.838;2023-03-22T11:04:05;97677.03;;;22.48;35.13
70921;BME280;58572;48.110;19.838;2023-03-22T11:06:38;97685.22;;;21.86;33.79
70921;BME280;58572;48.110;19.838;2023-03-22T11:09:10;97670.91;;;22.00;34.00
70921;BME280;58572;48.110;19.838;2023-03-22T11:11:45;97673.88;;;21.56;35.43
70921;BME280;58572;48.110;19.838;2023-03-22T11:14:18;97680.16;;;19.18;36.79
70921;BME280;58572;48.110;19.838;2023-03-22T11:16:51;97681.97;;;18.23;40.15
70921;BME280;58572;48.110;19.838;2023-03-22T11:19:22;97659.66;;;20.48;38.74
70921;BME280;58572;48.110;19.838;2023-03-22T11:21:52;97658.06;;;20.47;36.58
70921;BME280;58572;48.110;19.838;2023-03-22T11:24:20;97673.38;;;17.62;40.27
70921;BME280;58572;48.110;19.838;2023-03-22T11:27:02;97664.41;;;19.30;37.44
70921;BME280;58572;48.110;19.838;2023-03-22T11:29:39;97664.66;;;19.37;37.05
70921;BME280;58572;48.110;19.838;2023-03-22T11:32:20;97645.44;;;20.33;37.86
70921;BME280;58572;48.110;19.838;2023-03-22T11:34:58;97645.59;;;20.53;35.30
70921;BME280;58572;48.110;19.838;2023-03-22T11:37:25;97643.00;;;20.16;38.83
70921;BME280;58572;48.110;19.838;2023-03-22T11:39:58;97650.06;;;18.88;41.05
70921;BME280;58572;48.110;19.838;2023-03-22T11:42:26;97637.66;;;20.23;35.72
70921;BME280;58572;48.110;19.838;2023-03-22T11:44:56;97649.91;;;18.72;38.93
70921;BME280;58572;48.110;19.838;2023-03-22T11:47:25;97643.41;;;19.01;40.16
70921;BME280;58572;48.110;19.838;2023-03-22T11:49:52;97646.13;;;19.62;38.06
70921;BME280;58572;48.110;19.838;2023-03-22T11:52:24;97634.97;;;20.11;38.73
70921;BME280;58572;48.110;19.838;2023-03-22T11:54:53;97644.75;;;19.44;39.65
70921;BME280;58572;48.110;19.838;2023-03-22T11:57:23;97650.06;;;18.43;42.09
70921;BME280;58572;48.110;19.838;2023-03-22T11:59:56;97642.94;;;18.75;40.44
70921;BME280;58572;48.110;19.838;2023-03-22T12:02:27;97644.31;;;19.30;38.92
70921;BME280;58572;48.110;19.838;2023-03-22T12:04:59;97572.19;;;18.42;41.16
70921;BME280;58572;48.110;19.838;2023-03-22T12:07:31;97637.25;;;19.81;39.89
70921;BME280;58572;48.110;19.838;2023-03-22T12:10:03;97519.00;;;18.75;39.28
70921;BME280;58572;48.110;19.838;2023-03-22T12:12:34;97613.69;;;18.83;40.48
70921;BME280;58572;48.110;19.838;2023-03-22T12:15:09;97578.75;;;20.03;37.33
70921;BME280;58572;48.110;19.838;2023-03-22T12:17:42;97631.88;;;19.48;38.83
70921;BME280;58572;48.110;19.838;2023-03-22T12:20:16;97628.63;;;19.83;39.61
70921;BME280;58572;48.110;19.838;2023-03-22T12:22:48;97577.91;;;19.47;40.02
70921;BME280;58572;48.110;19.838;2023-03-22T12:25:19;97617.91;;;19.93;39.12
70921;BME280;58572;48.110;19.838;2023-03-22T12:27:50;97639.06;;;19.00;39.57
70921;BME280;58572;48.110;19.838;2023-03-22T12:30:23;97640.66;;;18.89;39.74
70921;BME280;58572;48.110;19.838;2023-03-22T12:32:53;97633.63;;;19.40;40.14
70921;BME280;58572;48.110;19.838;2023-03-22T12:35:28;97629.03;;;19.44;40.65
70921;BME280;58572;48.110;19.838;2023-03-22T12:37:58;97627.81;;;18.93;40.51
70921;BME280;58572;48.110;19.838;2023-03-22T12:40:29;97635.84;;;19.10;40.46
70921;BME280;58572;48.110;19.838;2023-03-22T12:43:01;97642.91;;;18.63;41.18
70921;BME280;58572;48.110;19.838;2023-03-22T12:45:37;97642.44;;;18.28;42.93
70921;BME280;58572;48.110;19.838;2023-03-22T12:48:11;97637.44;;;18.87;41.27
70921;BME280;58572;48.110;19.838;2023-03-22T12:50:43;97635.25;;;18.35;42.35
70921;BME280;58572;48.110;19.838;2023-03-22T12:53:13;97575.59;;;18.27;41.92
70921;BME280;58572;48.110;19.838;2023-03-22T12:55:42;97642.84;;;18.96;41.25
70921;BME280;58572;48.110;19.838;2023-03-22T12:58:13;97632.16;;;19.19;40.83
70921;BME280;58572;48.110;19.838;2023-03-22T13:00:49;97628.09;;;18.67;41.63
70921;BME280;58572;48.110;19.838;2023-03-22T13:03:23;97637.38;;;18.63;40.97
70921;BME280;58572;48.110;19.838;2023-03-22T13:06:00;97625.47;;;19.32;40.98
70921;BME280;58572;48.110;19.838;2023-03-22T13:11:44;97637.91;;;18.89;41.79
70921;BME280;58572;48.110;19.838;2023-03-22T13:14:52;97585.38;;;17.71;41.91
70921;BME280;58572;48.110;19.838;2023-03-22T13:17:14;97629.69;;;18.23;42.04
70921;BME280;58572;48.110;19.838;2023-03-22T13:20:18;97630.22;;;18.49;41.16
70921;BME280;58572;48.110;19.838;2023-03-22T13:23:03;97625.72;;;19.14;40.91
70921;BME280;58572;48.110;19.838;2023-03-22T13:25:36;97625.81;;;18.24;42.05
70921;BME280;58572;48.110;19.838;2023-03-22T13:28:20;97605.38;;;18.13;42.26
70921;BME280;58572;48.110;19.838;2023-03-22T13:30:52;97622.06;;;18.74;41.70